sensor_id;sensor_type;location;lat;lon;timestamp;pressure;altitude;pressure_sealevel;temperature;humidity
63339;BME280;47485;51.378;-1.342;2023-03-19T00:01:31;99673.73;;;3.00;55.66
63339;BME280;47485;51.378;-1.342;2023-03-19T00:03:58;99687.32;;;0.29;60.63
63339;BME280;47485;51.378;-1.342;2023-03-19T00:06:25;99693.91;;;-0.02;56.79
63339;BME280;47485;51.378;-1.342;2023-03-19T00:08:52;99711.14;;;1.54;55.23
63339;BME280;47485;51.378;-1.342;2023-03-19T00:11:18;99713.15;;;1.89;52.65
63339;BME280;47485;51.378;-1.342;2023-03-19T00:13:45;99706.87;;;3.03;48.98
63339;BME280;47485;51.378;-1.342;2023-03-19T00:16:13;99710.58;;;2.56;47.66
63339;BME280;47485;51.378;-1.342;2023-03-19T00:18:40;99715.47;;;4.71;45.72
63339;BME280;47485;51.378;-1.342;2023-03-19T00:21:07;99725.08;;;3.48;44.77
63339;BME280;47485;51.378;-1.342;2023-03-19T00:23:35;99733.99;;;3.73;43.10
63339;BME280;47485;51.378;-1.342;2023-03-19T00:26:01;99744.68;;;-0.59;49.33
63339;BME280;47485;51.378;-1.342;2023-03-19T00:28:28;99743.61;;;-0.06;50.41
63339;BME280;47485;51.378;-1.342;2023-03-19T00:30:55;99740.31;;;-2.52;53.52
63339;BME280;47485;51.378;-1.342;2023-03-19T00:33:22;99742.14;;;-0.22;50.82
63339;BME280;47485;51.378;-1.342;2023-03-19T00:35:48;99745.51;;;1.05;48.34
63339;BME280;47485;51.378;-1.342;2023-03-19T00:38:15;99742.93;;;2.79;46.18
63339;BME280;47485;51.378;-1.342;2023-03-19T00:40:42;99735.50;;;2.84;43.70
63339;BME280;47485;51.378;-1.342;2023-03-19T00:43:09;99736.49;;;4.16;41.78
63339;BME280;47485;51.378;-1.342;2023-03-19T00:45:36;99740.41;;;0.34;43.77
63339;BME280;47485;51.378;-1.342;2023-03-19T00:48:03;99746.90;;;4.49;39.41
63339;BME280;47485;51.378;-1.342;2023-03-19T00:50:30;99753.58;;;3.78;39.52
63339;BME280;47485;51.378;-1.342;2023-03-19T00:52:58;99761.82;;;5.05;38.62
63339;BME280;47485;51.378;-1.342;2023-03-19T00:55:25;99766.62;;;4.66;38.30
63339;BME280;47485;51.378;-1.342;2023-03-19T00:57:52;99769.10;;;5.75;37.44
63339;BME280;47485;51.378;-1.342;2023-03-19T01:00:19;99768.93;;;4.68;39.46
63339;BME280;47485;51.378;-1.342;2023-03-19T01:02:46;99769.00;;;4.75;39.32
63339;BME280;47485;51.378;-1.342;2023-03-19T01:05:14;99768.15;;;6.48;38.02
63339;BME280;47485;51.378;-1.342;2023-03-19T01:07:42;99770.52;;;5.51;37.94
63339;BME280;47485;51.378;-1.342;2023-03-19T01:10:10;99776.13;;;4.92;38.68
63339;BME280;47485;51.378;-1.342;2023-03-19T01:12:38;99777.10;;;5.13;39.10
63339;BME280;47485;51.378;-1.342;2023-03-19T01:15:05;99775.63;;;6.12;36.87
63339;BME280;47485;51.378;-1.342;2023-03-19T01:17:32;99781.59;;;4.71;36.62
63339;BME280;47485;51.378;-1.342;2023-03-19T01:20:00;99790.94;;;6.77;36.76
63339;BME280;47485;51.378;-1.342;2023-03-19T01:22:27;99793.73;;;6.44;36.94
63339;BME280;47485;51.378;-1.342;2023-03-19T01:24:54;99784.97;;;6.87;36.51
63339;BME280;47485;51.378;-1.342;2023-03-19T01:27:20;99778.80;;;6.23;35.71
63339;BME280;47485;51.378;-1.342;2023-03-19T01:29:47;99783.74;;;6.35;36.06
63339;BME280;47485;51.378;-1.342;2023-03-19T01:32:14;99785.26;;;8.65;35.24
63339;BME280;47485;51.378;-1.342;2023-03-19T01:34:42;99793.34;;;6.57;35.26
63339;BME280;47485;51.378;-1.342;2023-03-19T01:37:09;99790.91;;;7.91;34.58
63339;BME280;47485;51.378;-1.342;2023-03-19T01:39:35;99792.84;;;7.09;34.49
63339;BME280;47485;51.378;-1.342;2023-03-19T01:42:03;99801.74;;;7.41;35.32
63339;BME280;47485;51.378;-1.342;2023-03-19T01:44:31;99807.56;;;5.43;36.54
63339;BME280;47485;51.378;-1.342;2023-03-19T01:47:02;99799.29;;;6.71;36.10
63339;BME280;47485;51.378;-1.342;2023-03-19T01:49:31;99797.24;;;6.49;36.07
63339;BME280;47485;51.378;-1.342;2023-03-19T01:52:00;99799.51;;;6.20;38.10
63339;BME280;47485;51.378;-1.342;2023-03-19T01:54:29;99796.58;;;6.04;37.80
63339;BME280;47485;51.378;-1.342;2023-03-19T01:57:01;99799.55;;;5.38;37.36
63339;BME280;47485;51.378;-1.342;2023-03-19T01:59:31;99802.22;;;6.00;37.33
63339;BME280;47485;51.378;-1.342;2023-03-19T02:02:02;99800.16;;;6.22;37.50
63339;BME280;47485;51.378;-1.342;2023-03-19T02:04:33;99804.73;;;4.46;38.26
63339;BME280;47485;51.378;-1.342;2023-03-19T02:07:02;99806.22;;;5.06;38.68
63339;BME280;47485;51.378;-1.342;2023-03-19T02:09:31;99806.97;;;4.56;38.51
63339;BME280;47485;51.378;-1.342;2023-03-19T02:11:59;99807.43;;;6.55;38.22
63339;BME280;47485;51.378;-1.342;2023-03-19T02:14:26;99809.71;;;6.62;36.65
63339;BME280;47485;51.378;-1.342;2023-03-19T02:16:53;99813.67;;;5.99;36.59
63339;BME280;47485;51.378;-1.342;2023-03-19T02:19:26;99810.47;;;7.06;37.01
63339;BME280;47485;51.378;-1.342;2023-03-19T02:21:56;99812.66;;;6.84;36.21
63339;BME280;47485;51.378;-1.342;2023-03-19T02:24:30;99806.24;;;7.92;35.65
63339;BME280;47485;51.378;-1.342;2023-03-19T02:26:58;99799.48;;;7.67;35.09
63339;BME280;47485;51.378;-1.342;2023-03-19T02:29:25;99807.33;;;6.39;36.30
63339;BME280;47485;51.378;-1.342;2023-03-19T02:31:52;99809.60;;;4.60;36.97
63339;BME280;47485;51.378;-1.342;2023-03-19T02:34:37;99814.82;;;6.03;37.28
63339;BME280;47485;51.378;-1.342;2023-03-19T02:37:10;99811.33;;;6.14;38.30
63339;BME280;47485;51.378;-1.342;2023-03-19T02:39:45;99815.90;;;5.12;38.99
63339;BME280;47485;51.378;-1.342;2023-03-19T02:42:16;99814.70;;;5.06;39.66
63339;BME280;47485;51.378;-1.342;2023-03-19T02:44:44;99821.79;;;4.53;39.63
63339;BME280;47485;51.378;-1.342;2023-03-19T02:47:11;99818.23;;;5.65;38.60
63339;BME280;47485;51.378;-1.342;2023-03-19T02:49:38;99815.95;;;6.96;36.25
63339;BME280;47485;51.378;-1.342;2023-03-19T02:52:05;99820.11;;;6.88;36.48
63339;BME280;47485;51.378;-1.342;2023-03-19T02:54:32;99817.29;;;6.09;36.17
63339;BME280;47485;51.378;-1.342;2023-03-19T02:56:58;99813.37;;;6.42;37.44
63339;BME280;47485;51.378;-1.342;2023-03-19T02:59:25;99817.12;;;5.71;38.65
63339;BME280;47485;51.378;-1.342;2023-03-19T03:01:52;99820.19;;;5.39;37.43
63339;BME280;47485;51.378;-1.342;2023-03-19T03:04:19;99819.52;;;6.53;36.78
63339;BME280;47485;51.378;-1.342;2023-03-19T03:06:46;99822.77;;;6.84;35.60
63339;BME280;47485;51.378;-1.342;2023-03-19T03:09:14;99825.73;;;6.47;35.35
63339;BME280;47485;51.378;-1.342;2023-03-19T03:11:40;99825.77;;;6.15;35.06
63339;BME280;47485;51.378;-1.342;2023-03-19T03:14:08;99831.07;;;6.05;36.44
63339;BME280;47485;51.378;-1.342;2023-03-19T03:16:35;99836.76;;;5.21;37.60
63339;BME280;47485;51.378;-1.342;2023-03-19T03:19:03;99839.81;;;4.08;38.84
63339;BME280;47485;51.378;-1.342;2023-03-19T03:21:31;99843.19;;;2.53;40.56
63339;BME280;47485;51.378;-1.342;2023-03-19T03:23:57;99847.73;;;4.70;41.57
63339;BME280;47485;51.378;-1.342;2023-03-19T03:26:24;99853.30;;;1.92;43.08
63339;BME280;47485;51.378;-1.342;2023-03-19T03:28:51;99858.88;;;2.80;44.69
63339;BME280;47485;51.378;-1.342;2023-03-19T03:31:18;99865.40;;;2.22;45.27
63339;BME280;47485;51.378;-1.342;2023-03-19T03:33:46;99871.92;;;2.27;45.27
63339;BME280;47485;51.378;-1.342;2023-03-19T03:36:14;99872.69;;;2.73;43.99
63339;BME280;47485;51.378;-1.342;2023-03-19T03:38:41;99872.66;;;2.22;43.11
63339;BME280;47485;51.378;-1.342;2023-03-19T03:41:08;99876.87;;;3.12;43.10
63339;BME280;47485;51.378;-1.342;2023-03-19T03:43:35;99875.35;;;3.06;41.81
63339;BME280;47485;51.378;-1.342;2023-03-19T03:46:02;99882.17;;;3.32;42.16
63339;BME280;47485;51.378;-1.342;2023-03-19T03:48:28;99892.84;;;3.21;41.93
63339;BME280;47485;51.378;-1.342;2023-03-19T03:50:55;99891.59;;;1.75;42.35
63339;BME280;47485;51.378;-1.342;2023-03-19T03:53:22;99894.11;;;2.33;43.45
63339;BME280;47485;51.378;-1.342;2023-03-19T03:55:49;99897.76;;;1.20;43.60
63339;BME280;47485;51.378;-1.342;2023-03-19T03:58:16;99903.64;;;2.10;44.25
63339;BME280;47485;51.378;-1.342;2023-03-19T04:00:43;99906.22;;;1.73;44.53
63339;BME280;47485;51.378;-1.342;2023-03-19T04:03:10;99908.73;;;1.16;45.20
63339;BME280;47485;51.378;-1.342;2023-03-19T04:05:36;99910.66;;;0.63;45.80
63339;BME280;47485;51.378;-1.342;2023-03-19T04:08:04;99908.69;;;0.98;45.90
63339;BME280;47485;51.378;-1.342;2023-03-19T04:10:31;99911.53;;;1.74;45.30
63339;BME280;47485;51.378;-1.342;2023-03-19T04:12:58;99914.51;;;1.05;46.17
63339;BME280;47485;51.378;-1.342;2023-03-19T04:15:25;99921.17;;;0.23;45.81
63339;BME280;47485;51.378;-1.342;2023-03-19T04:17:51;99918.65;;;1.93;44.17
63339;BME280;47485;51.378;-1.342;2023-03-19T04:20:18;99920.74;;;1.93;44.12
63339;BME280;47485;51.378;-1.342;2023-03-19T04:22:45;99928.86;;;1.84;45.20
63339;BME280;47485;51.378;-1.342;2023-03-19T04:25:13;99931.33;;;1.83;44.00
63339;BME280;47485;51.378;-1.342;2023-03-19T04:27:40;99930.64;;;1.91;43.85
63339;BME280;47485;51.378;-1.342;2023-03-19T04:30:08;99934.02;;;1.03;45.18
63339;BME280;47485;51.378;-1.342;2023-03-19T04:32:35;99934.95;;;1.74;45.12
63339;BME280;47485;51.378;-1.342;2023-03-19T04:35:02;99937.39;;;2.75;44.25
63339;BME280;47485;51.378;-1.342;2023-03-19T04:37:30;99938.61;;;1.64;43.79
63339;BME280;47485;51.378;-1.342;2023-03-19T04:39:56;99944.51;;;0.52;44.80
63339;BME280;47485;51.378;-1.342;2023-03-19T04:42:23;99952.46;;;0.62;45.60
63339;BME280;47485;51.378;-1.342;2023-03-19T04:44:50;99955.08;;;2.07;43.69
63339;BME280;47485;51.378;-1.342;2023-03-19T04:47:17;99956.90;;;1.33;43.86
63339;BME280;47485;51.378;-1.342;2023-03-19T04:49:44;99963.06;;;2.15;42.27
63339;BME280;47485;51.378;-1.342;2023-03-19T04:52:11;99966.82;;;2.84;40.87
63339;BME280;47485;51.378;-1.342;2023-03-19T04:54:39;99970.40;;;3.48;40.86
63339;BME280;47485;51.378;-1.342;2023-03-19T04:57:06;99972.65;;;3.35;41.66
63339;BME280;47485;51.378;-1.342;2023-03-19T04:59:32;99973.69;;;1.87;41.33
63339;BME280;47485;51.378;-1.342;2023-03-19T05:01:59;99974.85;;;2.79;40.97
63339;BME280;47485;51.378;-1.342;2023-03-19T05:04:26;99980.35;;;3.02;40.08
63339;BME280;47485;51.378;-1.342;2023-03-19T05:06:53;99982.52;;;2.42;39.38
63339;BME280;47485;51.378;-1.342;2023-03-19T05:09:20;99984.92;;;-0.40;41.80
63339;BME280;47485;51.378;-1.342;2023-03-19T05:11:47;99985.46;;;2.96;40.08
63339;BME280;47485;51.378;-1.342;2023-03-19T05:14:14;99988.25;;;2.81;39.30
63339;BME280;47485;51.378;-1.342;2023-03-19T05:16:41;99991.81;;;3.60;38.43
63339;BME280;47485;51.378;-1.342;2023-03-19T05:19:08;99989.86;;;3.38;38.98
63339;BME280;47485;51.378;-1.342;2023-03-19T05:21:36;99994.58;;;3.74;38.22
63339;BME280;47485;51.378;-1.342;2023-03-19T05:24:03;100001.05;;;2.07;38.12
63339;BME280;47485;51.378;-1.342;2023-03-19T05:26:30;100006.76;;;4.09;37.08
63339;BME280;47485;51.378;-1.342;2023-03-19T05:28:57;100004.60;;;4.93;36.24
63339;BME280;47485;51.378;-1.342;2023-03-19T05:31:23;100009.33;;;3.39;36.11
63339;BME280;47485;51.378;-1.342;2023-03-19T05:33:50;100009.88;;;5.58;35.03
63339;BME280;47485;51.378;-1.342;2023-03-19T05:36:18;100008.73;;;6.24;33.60
63339;BME280;47485;51.378;-1.342;2023-03-19T05:38:45;100009.17;;;5.09;32.50
63339;BME280;47485;51.378;-1.342;2023-03-19T05:41:13;100015.07;;;5.50;33.16
63339;BME280;47485;51.378;-1.342;2023-03-19T05:43:39;100016.21;;;5.78;33.87
63339;BME280;47485;51.378;-1.342;2023-03-19T05:46:07;100024.79;;;5.21;34.49
63339;BME280;47485;51.378;-1.342;2023-03-19T05:48:33;100028.22;;;4.18;34.76
63339;BME280;47485;51.378;-1.342;2023-03-19T05:51:00;100030.51;;;4.34;34.58
63339;BME280;47485;51.378;-1.342;2023-03-19T05:53:27;100035.13;;;3.91;34.97
63339;BME280;47485;51.378;-1.342;2023-03-19T05:55:53;100034.45;;;4.46;34.65
63339;BME280;47485;51.378;-1.342;2023-03-19T05:58:20;100033.15;;;5.76;33.87
63339;BME280;47485;51.378;-1.342;2023-03-19T06:00:47;100036.21;;;5.97;32.72
63339;BME280;47485;51.378;-1.342;2023-03-19T06:03:14;100041.15;;;6.10;32.04
63339;BME280;47485;51.378;-1.342;2023-03-19T06:05:41;100037.69;;;6.03;31.85
63339;BME280;47485;51.378;-1.342;2023-03-19T06:08:08;100040.82;;;6.39;32.41
63339;BME280;47485;51.378;-1.342;2023-03-19T06:10:35;100042.80;;;4.53;33.08
63339;BME280;47485;51.378;-1.342;2023-03-19T06:13:02;100053.58;;;4.97;34.04
63339;BME280;47485;51.378;-1.342;2023-03-19T06:15:29;100061.41;;;4.78;34.78
63339;BME280;47485;51.378;-1.342;2023-03-19T06:17:55;100066.85;;;4.45;34.74
63339;BME280;47485;51.378;-1.342;2023-03-19T06:20:22;100071.00;;;4.33;34.83
63339;BME280;47485;51.378;-1.342;2023-03-19T06:22:49;100069.98;;;4.89;34.25
63339;BME280;47485;51.378;-1.342;2023-03-19T06:25:16;100074.07;;;4.67;33.49
63339;BME280;47485;51.378;-1.342;2023-03-19T06:27:43;100073.59;;;4.90;33.62
63339;BME280;47485;51.378;-1.342;2023-03-19T06:30:11;100074.30;;;5.31;33.89
63339;BME280;47485;51.378;-1.342;2023-03-19T06:32:38;100079.54;;;4.26;34.20
63339;BME280;47485;51.378;-1.342;2023-03-19T06:35:06;100082.96;;;4.36;34.32
63339;BME280;47485;51.378;-1.342;2023-03-19T06:37:32;100084.56;;;4.57;34.66
63339;BME280;47485;51.378;-1.342;2023-03-19T06:39:59;100091.44;;;3.85;35.49
63339;BME280;47485;51.378;-1.342;2023-03-19T06:42:26;100093.09;;;1.98;37.47
63339;BME280;47485;51.378;-1.342;2023-03-19T06:44:53;100094.84;;;2.35;39.21
63339;BME280;47485;51.378;-1.342;2023-03-19T06:47:20;100095.59;;;0.49;40.50
63339;BME280;47485;51.378;-1.342;2023-03-19T06:49:47;100098.15;;;0.52;40.51
63339;BME280;47485;51.378;-1.342;2023-03-19T06:52:14;100103.46;;;2.07;40.14
63339;BME280;47485;51.378;-1.342;2023-03-19T06:54:41;100109.43;;;4.25;38.78
63339;BME280;47485;51.378;-1.342;2023-03-19T06:57:08;100112.63;;;3.56;37.87
63339;BME280;47485;51.378;-1.342;2023-03-19T06:59:39;100115.12;;;3.33;37.62
63339;BME280;47485;51.378;-1.342;2023-03-19T07:02:08;100117.45;;;3.21;36.61
63339;BME280;47485;51.378;-1.342;2023-03-19T07:04:36;100119.41;;;3.74;37.48
63339;BME280;47485;51.378;-1.342;2023-03-19T07:07:04;100126.65;;;3.36;38.41
63339;BME280;47485;51.378;-1.342;2023-03-19T07:09:31;100128.38;;;0.39;40.74
63339;BME280;47485;51.378;-1.342;2023-03-19T07:11:57;100128.57;;;2.70;38.00
63339;BME280;47485;51.378;-1.342;2023-03-19T07:14:24;100133.26;;;2.47;38.47
63339;BME280;47485;51.378;-1.342;2023-03-19T07:16:51;100137.82;;;0.78;40.66
63339;BME280;47485;51.378;-1.342;2023-03-19T07:19:18;100135.82;;;1.03;41.18
63339;BME280;47485;51.378;-1.342;2023-03-19T07:21:45;100134.63;;;1.79;40.99
63339;BME280;47485;51.378;-1.342;2023-03-19T07:24:13;100133.52;;;1.95;39.89
63339;BME280;47485;51.378;-1.342;2023-03-19T07:26:40;100138.48;;;1.69;39.45
63339;BME280;47485;51.378;-1.342;2023-03-19T07:29:07;100143.27;;;1.61;39.82
63339;BME280;47485;51.378;-1.342;2023-03-19T07:31:34;100142.38;;;1.39;40.38
63339;BME280;47485;51.378;-1.342;2023-03-19T07:34:00;100142.81;;;2.01;39.78
63339;BME280;47485;51.378;-1.342;2023-03-19T07:36:27;100145.31;;;2.76;38.93
63339;BME280;47485;51.378;-1.342;2023-03-19T07:38:54;100150.64;;;2.21;39.82
63339;BME280;47485;51.378;-1.342;2023-03-19T07:41:21;100146.97;;;1.78;40.17
63339;BME280;47485;51.378;-1.342;2023-03-19T07:43:48;100153.72;;;2.74;39.82
63339;BME280;47485;51.378;-1.342;2023-03-19T07:46:15;100156.44;;;1.93;39.66
63339;BME280;47485;51.378;-1.342;2023-03-19T07:48:41;100161.45;;;2.20;40.22
63339;BME280;47485;51.378;-1.342;2023-03-19T07:51:08;100160.23;;;1.71;40.31
63339;BME280;47485;51.378;-1.342;2023-03-19T07:53:35;100161.08;;;2.86;39.18
63339;BME280;47485;51.378;-1.342;2023-03-19T07:56:02;100167.40;;;3.39;40.41
63339;BME280;47485;51.378;-1.342;2023-03-19T07:58:28;100174.36;;;1.00;43.34
63339;BME280;47485;51.378;-1.342;2023-03-19T08:00:55;100177.74;;;1.81;43.46
63339;BME280;47485;51.378;-1.342;2023-03-19T08:03:22;100177.20;;;0.39;42.16
63339;BME280;47485;51.378;-1.342;2023-03-19T08:05:49;100180.98;;;1.48;41.48
63339;BME280;47485;51.378;-1.342;2023-03-19T08:08:16;100186.98;;;2.31;40.54
63339;BME280;47485;51.378;-1.342;2023-03-19T08:10:43;100193.71;;;1.84;41.86
63339;BME280;47485;51.378;-1.342;2023-03-19T08:13:10;100197.76;;;0.14;43.43
63339;BME280;47485;51.378;-1.342;2023-03-19T08:15:38;100198.88;;;0.67;42.74
63339;BME280;47485;51.378;-1.342;2023-03-19T08:18:05;100198.94;;;1.98;42.06
63339;BME280;47485;51.378;-1.342;2023-03-19T08:20:31;100199.09;;;1.85;42.19
63339;BME280;47485;51.378;-1.342;2023-03-19T08:22:58;100203.55;;;0.49;42.11
63339;BME280;47485;51.378;-1.342;2023-03-19T08:25:25;100216.46;;;1.32;43.17
63339;BME280;47485;51.378;-1.342;2023-03-19T08:27:52;100223.44;;;0.47;43.76
63339;BME280;47485;51.378;-1.342;2023-03-19T08:30:19;100216.93;;;1.19;42.57
63339;BME280;47485;51.378;-1.342;2023-03-19T08:32:47;100228.79;;;0.57;44.91
63339;BME280;47485;51.378;-1.342;2023-03-19T08:35:15;100235.95;;;1.31;43.84
63339;BME280;47485;51.378;-1.342;2023-03-19T08:37:42;100242.90;;;0.13;44.29
63339;BME280;47485;51.378;-1.342;2023-03-19T08:40:10;100234.23;;;0.71;42.38
63339;BME280;47485;51.378;-1.342;2023-03-19T08:42:38;100232.76;;;3.08;38.57
63339;BME280;47485;51.378;-1.342;2023-03-19T08:45:06;100236.37;;;3.64;37.77
63339;BME280;47485;51.378;-1.342;2023-03-19T08:47:32;100235.63;;;2.57;38.22
63339;BME280;47485;51.378;-1.342;2023-03-19T08:49:59;100242.61;;;2.19;38.41
63339;BME280;47485;51.378;-1.342;2023-03-19T08:52:27;100244.81;;;3.57;37.75
63339;BME280;47485;51.378;-1.342;2023-03-19T08:54:54;100249.79;;;2.67;37.70
63339;BME280;47485;51.378;-1.342;2023-03-19T08:57:21;100253.64;;;2.83;38.01
63339;BME280;47485;51.378;-1.342;2023-03-19T08:59:51;100252.75;;;3.58;38.22
63339;BME280;47485;51.378;-1.342;2023-03-19T09:02:18;100252.64;;;2.45;38.99
63339;BME280;47485;51.378;-1.342;2023-03-19T09:04:50;100259.29;;;2.57;41.15
63339;BME280;47485;51.378;-1.342;2023-03-19T09:07:19;100261.17;;;2.46;40.07
63339;BME280;47485;51.378;-1.342;2023-03-19T09:09:49;100264.14;;;4.19;37.04
63339;BME280;47485;51.378;-1.342;2023-03-19T09:12:17;100268.77;;;2.22;37.75
63339;BME280;47485;51.378;-1.342;2023-03-19T09:14:43;100271.68;;;1.36;40.14
63339;BME280;47485;51.378;-1.342;2023-03-19T09:17:12;100271.58;;;1.57;40.93
63339;BME280;47485;51.378;-1.342;2023-03-19T09:19:39;100274.86;;;1.61;41.43
63339;BME280;47485;51.378;-1.342;2023-03-19T09:22:06;100269.07;;;2.95;38.31
63339;BME280;47485;51.378;-1.342;2023-03-19T09:24:33;100273.49;;;3.15;38.19
63339;BME280;47485;51.378;-1.342;2023-03-19T09:26:59;100277.78;;;2.25;38.23
63339;BME280;47485;51.378;-1.342;2023-03-19T09:29:26;100281.34;;;2.10;37.92
63339;BME280;47485;51.378;-1.342;2023-03-19T09:31:53;100285.37;;;4.54;36.85
63339;BME280;47485;51.378;-1.342;2023-03-19T09:34:20;100288.31;;;4.40;37.47
63339;BME280;47485;51.378;-1.342;2023-03-19T09:36:47;100289.16;;;2.17;38.63
63339;BME280;47485;51.378;-1.342;2023-03-19T09:39:15;100289.06;;;2.59;37.37
63339;BME280;47485;51.378;-1.342;2023-03-19T09:41:52;100288.85;;;4.30;35.54
63339;BME280;47485;51.378;-1.342;2023-03-19T09:44:26;100289.99;;;5.62;34.76
63339;BME280;47485;51.378;-1.342;2023-03-19T09:46:57;100290.25;;;3.36;36.02
63339;BME280;47485;51.378;-1.342;2023-03-19T09:49:33;100297.77;;;2.71;37.72
63339;BME280;47485;51.378;-1.342;2023-03-19T09:52:25;100291.11;;;3.93;35.05
63339;BME280;47485;51.378;-1.342;2023-03-19T09:55:00;100298.55;;;3.99;36.45
63339;BME280;47485;51.378;-1.342;2023-03-19T09:57:28;100301.33;;;3.72;37.47
63339;BME280;47485;51.378;-1.342;2023-03-19T09:59:55;100298.73;;;3.38;37.07
63339;BME280;47485;51.378;-1.342;2023-03-19T10:02:33;100298.88;;;2.72;36.66
63339;BME280;47485;51.378;-1.342;2023-03-19T10:05:14;100302.59;;;3.88;36.86
63339;BME280;47485;51.378;-1.342;2023-03-19T10:08:06;100304.46;;;5.18;36.15
63339;BME280;47485;51.378;-1.342;2023-03-19T10:10:48;100314.07;;;4.85;34.81
63339;BME280;47485;51.378;-1.342;2023-03-19T10:13:29;100317.12;;;3.67;35.81
63339;BME280;47485;51.378;-1.342;2023-03-19T10:16:00;100316.56;;;4.47;35.16
63339;BME280;47485;51.378;-1.342;2023-03-19T10:18:29;100310.87;;;6.62;32.58
63339;BME280;47485;51.378;-1.342;2023-03-19T10:21:00;100317.19;;;5.49;32.47
63339;BME280;47485;51.378;-1.342;2023-03-19T10:23:38;100324.95;;;5.83;33.42
63339;BME280;47485;51.378;-1.342;2023-03-19T10:26:11;100331.80;;;2.97;36.48
63339;BME280;47485;51.378;-1.342;2023-03-19T10:28:40;100330.70;;;4.34;36.69
63339;BME280;47485;51.378;-1.342;2023-03-19T10:31:24;100329.02;;;3.28;37.29
63339;BME280;47485;51.378;-1.342;2023-03-19T10:33:58;100330.44;;;2.74;36.86
63339;BME280;47485;51.378;-1.342;2023-03-19T10:36:33;100325.71;;;3.09;37.85
63339;BME280;47485;51.378;-1.342;2023-03-19T10:39:02;100326.59;;;2.37;39.07
63339;BME280;47485;51.378;-1.342;2023-03-19T10:41:37;100324.72;;;3.04;34.88
63339;BME280;47485;51.378;-1.342;2023-03-19T10:44:12;100329.77;;;1.96;36.11
63339;BME280;47485;51.378;-1.342;2023-03-19T10:46:42;100324.11;;;3.86;34.25
63339;BME280;47485;51.378;-1.342;2023-03-19T10:49:12;100316.86;;;5.03;31.78
63339;BME280;47485;51.378;-1.342;2023-03-19T10:51:42;100318.55;;;6.25;32.08
63339;BME280;47485;51.378;-1.342;2023-03-19T10:54:20;100326.91;;;1.17;35.59
63339;BME280;47485;51.378;-1.342;2023-03-19T10:56:48;100325.99;;;2.16;34.30
63339;BME280;47485;51.378;-1.342;2023-03-19T10:59:25;100325.81;;;3.09;33.28
63339;BME280;47485;51.378;-1.342;2023-03-19T11:01:56;100323.50;;;6.80;29.69
63339;BME280;47485;51.378;-1.342;2023-03-19T11:04:25;100327.26;;;5.85;31.14
63339;BME280;47485;51.378;-1.342;2023-03-19T11:06:53;100331.80;;;3.93;32.97
63339;BME280;47485;51.378;-1.342;2023-03-19T11:09:26;100333.64;;;6.29;33.11
63339;BME280;47485;51.378;-1.342;2023-03-19T11:11:58;100334.85;;;4.11;33.12
63339;BME280;47485;51.378;-1.342;2023-03-19T11:14:30;100334.05;;;5.00;33.50
63339;BME280;47485;51.378;-1.342;2023-03-19T11:17:04;100327.74;;;6.51;31.54
63339;BME280;47485;51.378;-1.342;2023-03-19T11:19:34;100327.85;;;6.08;32.27
63339;BME280;47485;51.378;-1.342;2023-03-19T11:22:13;100331.49;;;4.05;33.45
63339;BME280;47485;51.378;-1.342;2023-03-19T11:24:48;100338.83;;;4.34;36.63
63339;BME280;47485;51.378;-1.342;2023-03-19T11:27:16;100340.07;;;4.08;36.25
63339;BME280;47485;51.378;-1.342;2023-03-19T11:29:44;100338.99;;;3.23;37.67
63339;BME280;47485;51.378;-1.342;2023-03-19T11:32:31;100337.51;;;5.23;35.76
63339;BME280;47485;51.378;-1.342;2023-03-19T11:35:04;100339.59;;;3.86;35.47
63339;BME280;47485;51.378;-1.342;2023-03-19T11:37:50;100341.44;;;5.92;34.66
63339;BME280;47485;51.378;-1.342;2023-03-19T11:40:24;100341.21;;;5.76;33.35
63339;BME280;47485;51.378;-1.342;2023-03-19T11:43:04;100345.47;;;3.78;33.84
63339;BME280;47485;51.378;-1.342;2023-03-19T11:45:35;100351.01;;;4.23;34.31
63339;BME280;47485;51.378;-1.342;2023-03-19T11:48:23;100348.25;;;5.55;33.66
63339;BME280;47485;51.378;-1.342;2023-03-19T11:50:57;100343.54;;;7.17;31.66
63339;BME280;47485;51.378;-1.342;2023-03-19T11:53:28;100350.61;;;4.42;33.24
63339;BME280;47485;51.378;-1.342;2023-03-19T11:56:04;100345.50;;;5.61;31.83
63339;BME280;47485;51.378;-1.342;2023-03-19T11:58:47;100344.96;;;7.23;31.37
63339;BME280;47485;51.378;-1.342;2023-03-19T12:01:29;100350.92;;;4.07;32.69
63339;BME280;47485;51.378;-1.342;2023-03-19T12:04:18;100348.13;;;5.84;32.21
63339;BME280;47485;51.378;-1.342;2023-03-19T12:06:55;100355.08;;;5.59;32.79
63339;BME280;47485;51.378;-1.342;2023-03-19T12:09:31;100356.86;;;3.29;33.58
63339;BME280;47485;51.378;-1.342;2023-03-19T12:12:09;100349.62;;;7.26;31.34
63339;BME280;47485;51.378;-1.342;2023-03-19T12:15:01;100356.31;;;3.68;32.66
63339;BME280;47485;51.378;-1.342;2023-03-19T12:17:41;100347.04;;;5.37;31.80
63339;BME280;47485;51.378;-1.342;2023-03-19T12:20:27;100343.03;;;5.47;30.51
63339;BME280;47485;51.378;-1.342;2023-03-19T12:23:04;100340.06;;;4.28;31.96
63339;BME280;47485;51.378;-1.342;2023-03-19T12:25:44;100334.83;;;6.85;29.16
63339;BME280;47485;51.378;-1.342;2023-03-19T12:28:20;100336.42;;;4.41;29.88
63339;BME280;47485;51.378;-1.342;2023-03-19T12:31:07;100334.37;;;7.88;27.84
63339;BME280;47485;51.378;-1.342;2023-03-19T12:33:43;100334.54;;;4.36;29.73
63339;BME280;47485;51.378;-1.342;2023-03-19T12:36:16;100329.85;;;9.23;26.64
63339;BME280;47485;51.378;-1.342;2023-03-19T12:38:47;100327.58;;;8.27;27.14
63339;BME280;47485;51.378;-1.342;2023-03-19T12:41:19;100317.76;;;9.07;25.35
63339;BME280;47485;51.378;-1.342;2023-03-19T12:43:52;100320.71;;;11.06;25.82
63339;BME280;47485;51.378;-1.342;2023-03-19T12:46:25;100331.16;;;9.14;26.31
63339;BME280;47485;51.378;-1.342;2023-03-19T12:48:59;100334.88;;;8.96;26.62
63339;BME280;47485;51.378;-1.342;2023-03-19T12:51:34;100329.78;;;9.14;26.19
63339;BME280;47485;51.378;-1.342;2023-03-19T12:54:11;100332.40;;;8.62;26.75
63339;BME280;47485;51.378;-1.342;2023-03-19T12:56:43;100334.65;;;8.94;27.15
63339;BME280;47485;51.378;-1.342;2023-03-19T12:59:16;100337.31;;;7.55;27.03
63339;BME280;47485;51.378;-1.342;2023-03-19T13:01:48;100331.43;;;8.52;25.53
63339;BME280;47485;51.378;-1.342;2023-03-19T13:04:19;100326.58;;;10.45;23.87
63339;BME280;47485;51.378;-1.342;2023-03-19T13:06:53;100328.65;;;11.15;25.35